Peotone Weather

Nearby METAR Reports

 

KIGQ - Lansing, Illinois, USA
Distance from station: NE 19mi, 30km
Updated: Wed, 26-Jul-2017 9:15pm CDT
Clear
Clear
 Wind from SE
Wind: SE 6 mph , 9 km/h
Temperature: 77°F , 25°C
Dew Point: 70°F , 21°C
Humidity: 79%
Barometer: 29.98 inHg , 1015.2 hPa
Clouds: Clear
Visibility: 10 miles , 16 km
2017/07/27 02:15 KIGQ 270215Z AUTO 13005KT 10SM CLR 25/21 A2998 RMK AO2 T02500210
KIKK - Kankakee, Illinois, USA
Distance from station: S 19mi, 30km
Updated: Wed, 26-Jul-2017 9:13pm CDT
Partly cloudy
Partly cloudy
 Wind from ESE
Wind: ESE 5 mph , 7 km/h
Temperature: 75°F , 24°C
Dew Point: 73°F , 23°C
Humidity: 94%
Barometer: 29.99 inHg , 1015.6 hPa
Clouds: Partly cloudy
Visibility: 10 miles , 16 km
Cloud details: Partly cloudy 3300 ft
2017/07/27 02:13 KIKK 270213Z AUTO 12004KT 10SM SCT033 24/23 A2999 RMK AO2 LTG DSNT SW
 
KSJC - Joliet, Illinois, USA
Distance from station: WNW 24mi, 38km
Updated: Wed, 26-Jul-2017 8:53pm CDT
Clear
Clear
 Wind from WNW
Wind: WNW 14 mph , 22 km/h
Temperature: 73°F , 23°C
Dew Point: 61°F , 16°C
Humidity: 65%
Barometer: 29.95 inHg , 1014.2 hPa
Clouds: Clear
Visibility: 10 miles , 16 km
2017/07/27 01:53 KSJC 270153Z 29012KT 10SM CLR 23/16 A2995 RMK AO2 SLP142 T02330156
KLOT - Romeoville, Illinois, USA
Distance from station: NW 26mi, 41km
Updated: Wed, 26-Jul-2017 9:15pm CDT
Partly cloudy
Partly cloudy
 Wind from SE
Wind: SE 6 mph , 9 km/h
Temperature: 75°F , 24°C
Dew Point: 70°F , 21°C
Humidity: 83%
Barometer: 29.97 inHg , 1014.9 hPa
Clouds: Partly cloudy
Visibility: 10 miles , 16 km
Cloud details: Partly cloudy 3600 ft
Partly cloudy 12000 ft
2017/07/27 02:15 KLOT 270215Z AUTO 13005KT 10SM SCT036 SCT120 24/21 A2997 RMK AO2 LTG DSNT SW T02440212
 
KMDW - Midway Airport Chicago, Illinois, USA
Distance from station: N 31mi, 50km
Updated: Wed, 26-Jul-2017 8:53pm CDT
Overcast
Overcast
 Wind from SE
Wind: SE 8 mph , 13 km/h
Temperature: 81°F , 27°C
Heat Index: 85°F , 29°C
Dew Point: 72°F , 22°C
Humidity: 74%
Barometer: 29.97 inHg , 1014.9 hPa
Clouds: Overcast
Visibility: 10 miles , 16 km
Cloud details: Few Clouds 3500 ft
Mostly cloudy 14000 ft
Overcast 18000 ft
2017/07/27 01:53 KMDW 270153Z 13007KT 10SM FEW035 BKN140 OVC180 27/22 A2997 RMK AO2 SLP137 T02720217
KC09 - Morris, Illinois, USA
Distance from station: W 34mi, 54km
Updated: Wed, 26-Jul-2017 9:15pm CDT
Light drizzle, Partly cloudy
Light drizzle, Partly cloudy
 Wind from ESE
Wind: ESE 6 mph , 9 km/h
Temperature: 77°F , 25°C
Dew Point: 73°F , 23°C
Humidity: 89%
Barometer: 29.95 inHg , 1014.2 hPa
Summary: Light Drizzle
Clouds: Partly cloudy
Visibility: 10 miles , 16 km
Cloud details: Partly cloudy 9500 ft
Partly cloudy 12000 ft
2017/07/27 02:15 KC09 270215Z AUTO 11005KT 10SM -DZ SCT095 SCT120 25/23 A2995 RMK AO2 LTG DSNT SW T02470230

Metar display script from Saratoga-Weather.org